Drayton, South Carolina
Current Conditions -  °F | °C
As of 8:35 AM on Monday 22 Dec 2014 (Local Time) from KSPA Reporting Station
Drizzle Drizzle  
Wind Chill: 35°   Ceiling: 500
Heat Index: 41°   Visibility: 1.5mi
Dew Point: 41°   Wind: 9mph
Humidity: 100%   Direction: 40°NE
Pressure: 30.12"   Gusts: NA
Location:  34.96°N, 81.9°W
Report Text: KSPA 221335Z AUTO 04008KT 1 1/2SM -DZ OVC005 05/05 A3012 RMK AO2
Loading
Personal Weather Stations






























Interactive Weather Map New forecast layout! Learn more

10-Day Weather Forecast

Advertisements
Track Severe Weather on mobile